createdAt,value
2023-01-29T00:00:21.393Z,22.67
2023-01-29T00:02:50.030Z,23.33
2023-01-29T00:05:27.917Z,19.37
2023-01-29T00:07:59.078Z,19.43
2023-01-29T00:10:27.640Z,21.57
2023-01-29T00:12:56.246Z,22.67
2023-01-29T00:15:24.892Z,25.30
2023-01-29T00:17:53.396Z,24.40
2023-01-29T00:20:22.075Z,25.10
2023-01-29T00:22:50.929Z,25.50
2023-01-29T00:25:21.194Z,29.47
2023-01-29T00:27:49.932Z,26.13
2023-01-29T00:30:20.116Z,24.80
2023-01-29T00:32:49.126Z,32.53
2023-01-29T00:35:17.759Z,25.63
2023-01-29T00:37:46.349Z,31.87
2023-01-29T00:40:15.789Z,30.13
2023-01-29T00:43:05.398Z,29.13
2023-01-29T00:45:34.045Z,28.57
2023-01-29T00:48:02.664Z,29.47
2023-01-29T00:50:31.859Z,23.47
2023-01-29T00:53:00.482Z,27.73
2023-01-29T00:55:28.992Z,30.63
2023-01-29T00:57:59.060Z,29.03
2023-01-29T01:00:27.694Z,30.27
2023-01-29T01:03:07.492Z,33.43
2023-01-29T01:05:37.225Z,28.30
2023-01-29T01:08:26.921Z,25.47
2023-01-29T01:11:00.717Z,21.07
2023-01-29T01:13:30.966Z,22.17
2023-01-29T01:16:02.083Z,25.07
2023-01-29T01:18:32.398Z,25.80
2023-01-29T01:21:01.068Z,22.10
2023-01-29T01:23:29.673Z,22.17
2023-01-29T01:25:59.956Z,15.83
2023-01-29T01:28:30.637Z,21.47
2023-01-29T01:30:59.346Z,24.00
2023-01-29T01:33:28.003Z,26.93
2023-01-29T01:35:56.620Z,29.20
2023-01-29T01:38:25.290Z,24.17
2023-01-29T01:40:54.358Z,24.97
2023-01-29T01:43:23.103Z,23.33
2023-01-29T01:45:54.060Z,22.83
2023-01-29T01:48:25.534Z,25.20
2023-01-29T01:50:59.453Z,25.83
2023-01-29T01:53:34.780Z,27.77
2023-01-29T01:56:06.762Z,23.83
2023-01-29T01:58:38.937Z,27.73
2023-01-29T02:01:11.023Z,24.17
2023-01-29T02:04:01.189Z,25.67
2023-01-29T02:06:47.377Z,27.23
2023-01-29T02:09:35.978Z,24.77
2023-01-29T02:12:06.717Z,24.60
2023-01-29T02:14:40.352Z,25.90
2023-01-29T02:17:15.746Z,23.53
2023-01-29T02:19:52.149Z,23.27
2023-01-29T02:22:55.431Z,24.30
2023-01-29T02:25:48.703Z,17.73
2023-01-29T02:28:41.676Z,17.53
2023-01-29T02:31:18.516Z,21.40
2023-01-29T02:33:56.311Z,21.70
2023-01-29T02:36:34.200Z,22.07
2023-01-29T02:39:11.415Z,21.50
2023-01-29T02:41:45.876Z,19.33
2023-01-29T02:44:23.801Z,18.10
2023-01-29T02:46:59.638Z,16.70
2023-01-29T02:49:36.161Z,21.97
2023-01-29T02:52:10.695Z,17.75
2023-01-29T02:54:46.530Z,29.77
2023-01-29T02:57:21.462Z,19.37
2023-01-29T02:59:57.285Z,21.50
2023-01-29T03:02:32.600Z,20.07
2023-01-29T03:05:04.472Z,18.93
2023-01-29T03:07:45.161Z,18.47
2023-01-29T03:10:18.915Z,19.63
2023-01-29T03:12:52.657Z,20.47
2023-01-29T03:15:29.459Z,21.60
2023-01-29T03:18:03.778Z,21.47
2023-01-29T03:20:35.600Z,19.70
2023-01-29T03:23:08.485Z,23.23
2023-01-29T03:25:58.009Z,21.70
2023-01-29T03:28:45.717Z,24.33
2023-01-29T03:31:36.619Z,24.07
2023-01-29T03:34:16.773Z,23.53
2023-01-29T03:36:56.256Z,22.57
2023-01-29T03:39:29.621Z,22.23
2023-01-29T03:42:02.953Z,28.13
2023-01-29T03:44:37.462Z,34.23
2023-01-29T03:47:18.665Z,36.70
2023-01-29T03:49:58.155Z,34.23
2023-01-29T03:52:35.151Z,34.57
2023-01-29T03:55:10.869Z,33.20
2023-01-29T03:57:42.627Z,29.63
2023-01-29T04:00:17.240Z,31.27
2023-01-29T04:02:52.534Z,31.23
2023-01-29T04:05:26.045Z,32.70
2023-01-29T04:07:59.019Z,34.47
2023-01-29T04:10:31.079Z,42.17
2023-01-29T04:13:03.689Z,38.00
2023-01-29T04:15:38.446Z,31.77
2023-01-29T04:18:08.677Z,27.97
2023-01-29T04:20:37.941Z,31.83
2023-01-29T04:23:08.309Z,27.33
2023-01-29T04:25:45.196Z,35.83
2023-01-29T04:28:22.344Z,33.67
2023-01-29T04:30:56.329Z,38.37
2023-01-29T04:33:35.689Z,39.70
2023-01-29T04:36:22.606Z,30.30
2023-01-29T04:39:01.557Z,26.67
2023-01-29T04:41:35.619Z,30.37
2023-01-29T04:44:11.556Z,31.93
2023-01-29T04:46:49.360Z,30.30
2023-01-29T04:49:31.292Z,31.07
2023-01-29T04:52:07.719Z,32.07
2023-01-29T04:54:52.490Z,27.30
2023-01-29T04:57:27.372Z,24.03
2023-01-29T05:00:01.392Z,26.23
2023-01-29T05:02:30.500Z,26.53
2023-01-29T05:05:01.667Z,27.77
2023-01-29T05:07:32.547Z,27.20
2023-01-29T05:10:01.851Z,25.33
2023-01-29T05:12:31.977Z,23.63
2023-01-29T05:15:05.460Z,23.53
2023-01-29T05:17:34.171Z,21.80
2023-01-29T05:20:04.529Z,21.70
2023-01-29T05:22:33.341Z,25.60
2023-01-29T05:25:01.929Z,20.53
2023-01-29T05:27:54.369Z,23.40
2023-01-29T05:30:23.168Z,24.67
2023-01-29T05:32:51.842Z,23.47
2023-01-29T05:35:22.016Z,24.40
2023-01-29T05:37:50.625Z,26.27
2023-01-29T05:40:19.592Z,29.57
2023-01-29T05:42:48.432Z,28.60
2023-01-29T05:45:17.290Z,25.40
2023-01-29T05:47:45.960Z,25.57
2023-01-29T05:50:15.692Z,26.97
2023-01-29T05:52:45.952Z,24.53
2023-01-29T05:55:14.577Z,26.17
2023-01-29T05:57:43.410Z,25.57
2023-01-29T06:00:13.564Z,27.17
2023-01-29T06:02:42.402Z,27.03
2023-01-29T06:05:11.565Z,28.77
2023-01-29T06:07:45.496Z,31.60
2023-01-29T06:10:17.484Z,27.80
2023-01-29T06:12:46.827Z,28.07
2023-01-29T06:15:16.778Z,29.97
2023-01-29T06:17:45.793Z,28.23
2023-01-29T06:20:14.852Z,29.00
2023-01-29T06:22:43.989Z,25.60
2023-01-29T06:25:12.653Z,26.20
2023-01-29T06:27:42.711Z,28.93
2023-01-29T06:30:12.675Z,24.23
2023-01-29T06:32:41.902Z,27.83
2023-01-29T06:35:11.460Z,27.10
2023-01-29T06:37:40.237Z,24.67
2023-01-29T06:40:09.997Z,25.63
2023-01-29T06:42:38.654Z,32.13
2023-01-29T06:45:09.929Z,34.87
2023-01-29T06:47:38.530Z,32.77
2023-01-29T06:50:08.202Z,19.80
2023-01-29T06:52:36.794Z,52.40
2023-01-29T06:55:05.987Z,45.83
2023-01-29T06:57:34.779Z,46.77
2023-01-29T07:00:03.862Z,38.07
2023-01-29T07:02:33.930Z,35.10
2023-01-29T07:05:02.608Z,36.53
2023-01-29T07:07:31.873Z,31.27
2023-01-29T07:10:03.428Z,29.23
2023-01-29T07:12:32.085Z,26.20
2023-01-29T07:15:03.438Z,26.57
2023-01-29T07:17:33.474Z,27.60
2023-01-29T07:20:04.149Z,29.80
2023-01-29T07:22:32.960Z,30.10
2023-01-29T07:25:05.776Z,28.10
2023-01-29T07:27:34.422Z,16.02
2023-01-29T07:30:07.024Z,19.55
2023-01-29T07:32:37.154Z,60.00
2023-01-29T07:35:06.310Z,31.90
2023-01-29T07:37:35.071Z,20.73
2023-01-29T07:40:11.514Z,20.40
2023-01-29T07:42:44.238Z,24.33
2023-01-29T07:45:14.160Z,22.17
2023-01-29T07:47:44.251Z,23.40
2023-01-29T07:50:13.582Z,24.20
2023-01-29T07:52:42.336Z,25.00
2023-01-29T07:55:11.645Z,26.13
2023-01-29T07:57:40.687Z,30.23
2023-01-29T08:00:10.766Z,27.10
2023-01-29T08:02:39.627Z,29.03
2023-01-29T08:05:10.916Z,29.97
2023-01-29T08:07:39.852Z,29.67
2023-01-29T08:10:09.089Z,28.27
2023-01-29T08:12:37.950Z,31.13
2023-01-29T08:15:07.470Z,33.83
2023-01-29T08:17:43.328Z,32.20
2023-01-29T08:20:20.391Z,26.13
2023-01-29T08:22:49.645Z,26.60
2023-01-29T08:25:20.442Z,28.33
2023-01-29T08:27:49.432Z,33.90
2023-01-29T08:30:18.720Z,30.20
2023-01-29T08:32:47.973Z,28.40
2023-01-29T08:35:17.859Z,21.53
2023-01-29T08:37:55.057Z,21.77
2023-01-29T08:40:24.428Z,20.27
2023-01-29T08:42:53.928Z,21.67
2023-01-29T08:45:23.030Z,19.33
2023-01-29T08:47:52.275Z,26.27
2023-01-29T08:50:21.481Z,28.33
2023-01-29T08:52:55.493Z,24.23
2023-01-29T08:55:30.522Z,29.23
2023-01-29T08:58:03.912Z,26.47
2023-01-29T09:00:34.406Z,26.00
2023-01-29T09:03:04.104Z,21.80
2023-01-29T09:05:33.190Z,20.27
2023-01-29T09:08:06.032Z,21.20
2023-01-29T09:10:35.426Z,20.43
2023-01-29T09:13:04.627Z,19.00
2023-01-29T09:15:33.949Z,62.33
2023-01-29T09:18:05.895Z,28.73
2023-01-29T09:20:34.759Z,34.87
2023-01-29T09:23:07.865Z,33.60
2023-01-29T09:25:37.357Z,41.57
2023-01-29T09:28:08.038Z,37.17
2023-01-29T09:30:38.364Z,35.03
2023-01-29T09:33:07.564Z,36.13
2023-01-29T09:35:36.935Z,44.47
2023-01-29T09:38:07.064Z,37.30
2023-01-29T09:43:47.731Z,42.97
2023-01-29T09:46:22.551Z,40.97
2023-01-29T09:49:02.579Z,48.00
2023-01-29T09:51:49.505Z,41.53
2023-01-29T09:54:26.145Z,30.80
2023-01-29T09:57:01.203Z,37.30
2023-01-29T09:59:32.795Z,31.23
2023-01-29T10:02:13.086Z,30.92
2023-01-29T10:05:12.480Z,36.87
2023-01-29T10:08:09.026Z,29.37
2023-01-29T10:10:50.632Z,31.57
2023-01-29T10:13:31.226Z,32.03
2023-01-29T10:16:15.071Z,25.67
2023-01-29T10:19:07.926Z,32.00
2023-01-29T10:22:00.232Z,32.70
2023-01-29T10:24:38.648Z,28.10
2023-01-29T10:27:15.305Z,27.93
2023-01-29T10:29:45.507Z,29.67
2023-01-29T10:32:19.401Z,36.27
2023-01-29T10:34:54.991Z,41.50
2023-01-29T10:37:26.671Z,43.47
2023-01-29T10:39:55.597Z,31.87
2023-01-29T10:42:38.457Z,40.47
2023-01-29T10:45:22.378Z,35.03
2023-01-29T10:48:21.715Z,31.97
2023-01-29T10:54:19.966Z,38.40
2023-01-29T10:57:04.827Z,39.37
2023-01-29T10:59:54.913Z,41.23
2023-01-29T11:02:29.868Z,93.68
2023-01-29T11:04:58.692Z,65.33
2023-01-29T11:07:29.361Z,47.63
2023-01-29T11:10:23.090Z,41.57
2023-01-29T11:12:52.621Z,51.00
2023-01-29T11:15:26.659Z,44.87
2023-01-29T11:18:11.118Z,108.40
2023-01-29T11:20:40.256Z,84.87
2023-01-29T11:23:28.499Z,57.77
2023-01-29T11:25:59.792Z,68.70
2023-01-29T11:28:48.570Z,51.40
2023-01-29T11:31:26.507Z,53.90
2023-01-29T11:34:09.695Z,50.67
2023-01-29T11:36:42.726Z,44.20
2023-01-29T11:39:28.409Z,50.07
2023-01-29T11:42:15.064Z,44.37
2023-01-29T11:44:45.192Z,53.93
2023-01-29T11:47:21.965Z,46.40
2023-01-29T11:49:55.672Z,43.57
2023-01-29T11:52:42.788Z,54.83
2023-01-29T11:55:22.660Z,44.77
2023-01-29T11:57:56.114Z,43.13
2023-01-29T12:00:27.893Z,52.87
2023-01-29T12:03:06.501Z,51.50
2023-01-29T12:05:41.148Z,45.00
2023-01-29T12:08:19.873Z,54.03
2023-01-29T12:10:51.396Z,49.17
2023-01-29T12:13:30.484Z,58.50
2023-01-29T12:16:18.970Z,73.87
2023-01-29T12:18:58.639Z,56.80
2023-01-29T12:21:35.436Z,61.17
2023-01-29T12:24:13.246Z,57.13
2023-01-29T12:26:48.717Z,53.13
2023-01-29T12:29:34.067Z,39.43
2023-01-29T12:32:14.158Z,41.53
2023-01-29T12:34:50.196Z,44.57
2023-01-29T12:37:30.759Z,32.63
2023-01-29T12:40:03.440Z,44.83
2023-01-29T12:42:34.860Z,38.27
2023-01-29T12:45:05.692Z,39.70
2023-01-29T12:47:40.340Z,38.93
2023-01-29T12:50:22.578Z,30.57
2023-01-29T12:52:58.402Z,31.13
2023-01-29T12:55:38.219Z,32.43
2023-01-29T12:58:16.669Z,38.57
2023-01-29T13:00:51.001Z,41.47
2023-01-29T13:03:31.171Z,31.00
2023-01-29T13:07:03.913Z,31.67
2023-01-29T13:09:43.883Z,31.43
2023-01-29T13:12:51.685Z,32.03
2023-01-29T13:16:15.670Z,32.80
2023-01-29T13:19:19.188Z,26.87
2023-01-29T13:21:52.619Z,29.80
2023-01-29T13:24:23.990Z,28.07
2023-01-29T13:27:09.095Z,38.33
2023-01-29T13:34:43.168Z,33.83
2023-01-29T13:38:04.133Z,29.83
2023-01-29T13:40:37.681Z,34.47
2023-01-29T13:43:23.868Z,41.10
2023-01-29T13:46:05.520Z,37.50
2023-01-29T13:48:48.957Z,37.60
2023-01-29T13:51:24.003Z,37.70
2023-01-29T13:53:58.966Z,45.13
2023-01-29T13:57:06.377Z,38.63
2023-01-29T14:00:09.340Z,33.53
2023-01-29T14:02:49.028Z,30.50
2023-01-29T14:06:07.914Z,34.30
2023-01-29T14:08:59.653Z,26.47
2023-01-29T14:15:06.919Z,29.77
2023-01-29T14:17:37.600Z,29.93
2023-01-29T14:20:48.121Z,39.57
2023-01-29T14:23:33.372Z,31.80
2023-01-29T14:47:23.695Z,57.07
2023-01-29T14:49:57.389Z,49.43
2023-01-29T14:52:34.591Z,48.87
2023-01-29T14:55:07.167Z,50.63
2023-01-29T14:57:37.510Z,45.00
2023-01-29T15:00:21.076Z,49.37
2023-01-29T15:03:01.989Z,44.40
2023-01-29T15:05:34.412Z,48.17
2023-01-29T15:08:08.904Z,39.30
2023-01-29T15:10:47.616Z,41.20
2023-01-29T15:13:27.655Z,44.37
2023-01-29T15:15:59.902Z,45.80
2023-01-29T15:18:37.019Z,38.43
2023-01-29T15:21:15.107Z,45.37
2023-01-29T15:23:45.222Z,41.23
2023-01-29T15:26:20.232Z,40.03
2023-01-29T15:29:03.564Z,42.77
2023-01-29T15:31:33.776Z,41.63
2023-01-29T15:34:09.220Z,42.17
2023-01-29T15:36:40.346Z,41.33
2023-01-29T15:39:19.688Z,34.87
2023-01-29T15:41:48.644Z,50.53
2023-01-29T15:44:19.917Z,44.77
2023-01-29T15:46:52.374Z,39.57
2023-01-29T15:49:29.455Z,38.00
2023-01-29T15:52:02.268Z,41.63
2023-01-29T15:54:34.524Z,38.40
2023-01-29T15:57:04.329Z,41.97
2023-01-29T15:59:36.806Z,41.33
2023-01-29T16:02:23.205Z,51.23
2023-01-29T16:04:54.360Z,41.40
2023-01-29T16:07:23.199Z,48.47
2023-01-29T16:09:52.767Z,43.07
2023-01-29T16:12:22.078Z,40.93
2023-01-29T16:14:52.153Z,37.03
2023-01-29T16:17:29.206Z,37.57
2023-01-29T16:19:59.858Z,35.77
2023-01-29T16:22:33.578Z,33.83
2023-01-29T16:25:05.709Z,39.00
2023-01-29T16:27:35.177Z,30.57
2023-01-29T16:30:05.566Z,31.70
2023-01-29T16:32:35.028Z,32.93
2023-01-29T16:35:05.731Z,36.20
2023-01-29T16:37:37.113Z,32.00
2023-01-29T16:40:15.991Z,33.47
2023-01-29T16:42:44.837Z,36.83
2023-01-29T16:45:28.464Z,36.73
2023-01-29T16:48:20.453Z,36.27
2023-01-29T16:50:55.331Z,37.73
2023-01-29T16:53:27.526Z,34.97
2023-01-29T16:56:03.113Z,37.13
2023-01-29T16:58:31.995Z,36.10
2023-01-29T17:01:04.160Z,36.50
2023-01-29T17:03:38.522Z,37.10
2023-01-29T17:06:25.272Z,39.03
2023-01-29T17:08:54.330Z,40.47
2023-01-29T17:11:31.584Z,41.03
2023-01-29T17:14:01.271Z,41.50
2023-01-29T17:16:31.602Z,42.77
2023-01-29T17:19:00.838Z,47.30
2023-01-29T17:21:31.513Z,47.87
2023-01-29T17:24:00.508Z,44.20
2023-01-29T17:26:29.426Z,42.93
2023-01-29T17:29:00.669Z,49.97
2023-01-29T17:31:36.541Z,49.33
2023-01-29T17:34:07.731Z,46.60
2023-01-29T17:36:37.951Z,45.77
2023-01-29T17:39:21.148Z,48.33
2023-01-29T17:41:52.578Z,42.73
2023-01-29T17:44:21.423Z,43.93
2023-01-29T17:46:50.660Z,48.67
2023-01-29T17:49:24.736Z,44.33
2023-01-29T17:51:55.941Z,46.43
2023-01-29T17:54:29.599Z,48.33
2023-01-29T17:56:59.743Z,44.70
2023-01-29T17:59:32.981Z,45.73
2023-01-29T18:02:06.742Z,41.77
2023-01-29T18:04:37.737Z,42.33
2023-01-29T18:07:09.418Z,44.17
2023-01-29T18:09:38.107Z,43.50
2023-01-29T18:12:26.582Z,39.13
2023-01-29T18:14:55.188Z,38.63
2023-01-29T18:17:24.334Z,43.77
2023-01-29T18:19:53.045Z,42.87
2023-01-29T18:22:23.188Z,44.73
2023-01-29T18:24:52.692Z,45.27
2023-01-29T18:27:22.275Z,40.77
2023-01-29T18:29:51.411Z,42.30
2023-01-29T18:32:20.095Z,39.37
2023-01-29T18:34:50.536Z,38.77
2023-01-29T18:37:19.278Z,44.37
2023-01-29T18:39:49.374Z,46.20
2023-01-29T18:42:18.432Z,39.87
2023-01-29T18:44:47.318Z,40.73
2023-01-29T18:47:16.021Z,44.20
2023-01-29T18:49:44.728Z,40.47
2023-01-29T18:52:13.411Z,42.73
2023-01-29T18:54:42.112Z,42.27
2023-01-29T18:57:14.727Z,42.67
2023-01-29T18:59:45.324Z,41.33
2023-01-29T19:02:16.034Z,42.73
2023-01-29T19:04:45.080Z,41.50
2023-01-29T19:07:15.502Z,42.80
2023-01-29T19:09:46.150Z,41.40
2023-01-29T19:12:16.291Z,43.50
2023-01-29T19:14:45.096Z,40.60
2023-01-29T19:17:13.791Z,43.23
2023-01-29T19:19:42.405Z,51.13
2023-01-29T19:22:25.137Z,50.20
2023-01-29T19:25:05.875Z,57.93
2023-01-29T19:27:37.099Z,47.03
2023-01-29T19:30:07.339Z,54.17
2023-01-29T19:32:36.054Z,48.53
2023-01-29T19:35:05.190Z,51.30
2023-01-29T19:37:33.966Z,51.27
2023-01-29T19:40:02.717Z,49.40
2023-01-29T19:42:31.641Z,47.57
2023-01-29T19:45:01.722Z,45.10
2023-01-29T19:47:34.869Z,42.33
2023-01-29T19:50:03.728Z,40.77
2023-01-29T19:52:55.321Z,41.87
2023-01-29T19:55:25.967Z,38.17
2023-01-29T19:57:55.322Z,38.67
2023-01-29T20:00:26.140Z,39.87
2023-01-29T20:02:54.983Z,41.07
2023-01-29T20:05:53.589Z,42.77
2023-01-29T20:11:57.071Z,34.53
2023-01-29T20:14:49.931Z,39.03
2023-01-29T20:17:20.485Z,37.67
2023-01-29T20:19:49.137Z,47.33
2023-01-29T20:22:18.073Z,49.03
2023-01-29T20:24:46.790Z,49.80
2023-01-29T20:27:15.474Z,49.43
2023-01-29T20:29:45.528Z,49.77
2023-01-29T20:32:14.827Z,45.33
2023-01-29T20:34:47.390Z,45.97
2023-01-29T20:37:16.106Z,53.53
2023-01-29T20:39:45.350Z,53.93
2023-01-29T20:42:14.166Z,50.87
2023-01-29T20:44:42.823Z,49.37
2023-01-29T20:47:12.160Z,59.73
2023-01-29T20:49:40.824Z,48.50
2023-01-29T20:52:11.565Z,45.13
2023-01-29T20:54:40.403Z,46.77
2023-01-29T20:57:09.330Z,50.93
2023-01-29T20:59:42.971Z,45.23
2023-01-29T21:02:12.896Z,36.30
2023-01-29T21:04:44.112Z,58.43
2023-01-29T21:07:14.395Z,61.83
2023-01-29T21:09:43.332Z,46.10
2023-01-29T21:12:12.490Z,44.47
2023-01-29T21:14:41.380Z,43.30
2023-01-29T21:17:10.624Z,40.00
2023-01-29T21:19:39.317Z,44.80
2023-01-29T21:22:08.088Z,50.27
2023-01-29T21:24:38.232Z,39.13
2023-01-29T21:27:07.348Z,38.70
2023-01-29T21:29:37.778Z,36.47
2023-01-29T21:32:07.021Z,38.77
2023-01-29T21:34:36.000Z,37.00
2023-01-29T21:37:04.708Z,35.63
2023-01-29T21:39:33.375Z,37.43
2023-01-29T21:42:21.024Z,38.70
2023-01-29T21:44:49.639Z,41.97
2023-01-29T21:47:18.641Z,40.10
2023-01-29T21:49:47.413Z,37.90
2023-01-29T21:52:16.938Z,41.07
2023-01-29T21:54:49.222Z,39.30
2023-01-29T21:57:19.383Z,41.40
2023-01-29T21:59:52.852Z,29.23
2023-01-29T22:02:26.757Z,29.17
2023-01-29T22:05:08.744Z,53.27
2023-01-29T22:07:46.101Z,27.85
2023-01-29T22:10:15.765Z,38.67
2023-01-29T22:12:46.297Z,30.15
2023-01-29T22:15:42.584Z,41.77
2023-01-29T22:22:18.326Z,32.42
2023-01-29T22:24:47.133Z,59.27
2023-01-29T22:27:16.045Z,49.23
2023-01-29T22:30:08.771Z,40.70
2023-01-29T22:32:37.536Z,45.43
2023-01-29T22:35:07.082Z,38.50
2023-01-29T22:37:35.718Z,37.70
2023-01-29T22:40:04.437Z,36.70
2023-01-29T22:42:33.569Z,40.57
2023-01-29T22:45:02.226Z,44.07
2023-01-29T22:47:33.953Z,40.67
2023-01-29T22:50:02.698Z,42.63
2023-01-29T22:52:39.011Z,46.13
2023-01-29T22:55:10.256Z,43.60
2023-01-29T22:57:39.447Z,43.80
2023-01-29T23:00:11.309Z,41.50
2023-01-29T23:02:41.335Z,45.73
2023-01-29T23:05:10.801Z,47.17
2023-01-29T23:07:40.544Z,45.53
2023-01-29T23:10:15.198Z,42.43
2023-01-29T23:12:49.231Z,49.77
2023-01-29T23:15:18.460Z,47.47
2023-01-29T23:17:52.524Z,46.37
2023-01-29T23:20:22.212Z,48.83
2023-01-29T23:22:51.528Z,49.67
2023-01-29T23:25:45.155Z,41.80
2023-01-29T23:28:14.567Z,44.63
2023-01-29T23:30:48.334Z,47.83
2023-01-29T23:33:21.323Z,48.67
2023-01-29T23:35:55.870Z,43.87
2023-01-29T23:38:24.881Z,48.40
2023-01-29T23:40:58.379Z,48.87
2023-01-29T23:43:27.393Z,47.20
2023-01-29T23:45:56.733Z,43.87
2023-01-29T23:48:27.188Z,42.43
2023-01-29T23:50:55.846Z,44.30
2023-01-29T23:53:24.436Z,41.40
2023-01-29T23:56:00.209Z,40.13
2023-01-29T23:58:31.439Z,43.33
